createdAt,value
2023-01-31T00:01:34.282Z,4.57
2023-01-31T00:04:03.877Z,3.97
2023-01-31T00:06:33.290Z,4.50
2023-01-31T00:09:01.786Z,4.70
2023-01-31T00:11:29.825Z,4.83
2023-01-31T00:13:59.182Z,4.73
2023-01-31T00:16:26.267Z,4.87
2023-01-31T00:18:53.234Z,4.57
2023-01-31T00:21:23.684Z,4.90
2023-01-31T00:23:52.211Z,4.33
2023-01-31T00:26:27.596Z,4.50
2023-01-31T00:28:55.986Z,4.30
2023-01-31T00:31:25.172Z,4.80
2023-01-31T00:33:53.513Z,4.33
2023-01-31T00:36:28.755Z,4.70
2023-01-31T00:38:58.003Z,4.63
2023-01-31T00:41:26.556Z,4.50
2023-01-31T00:43:53.309Z,4.93
2023-01-31T00:46:20.797Z,4.23
2023-01-31T00:48:48.102Z,4.70
2023-01-31T00:51:14.840Z,3.80
2023-01-31T00:53:41.624Z,4.80
2023-01-31T00:56:14.468Z,4.13
2023-01-31T00:58:41.482Z,4.90
2023-01-31T01:01:26.192Z,4.53
2023-01-31T01:03:53.544Z,4.37
2023-01-31T01:06:20.439Z,4.40
2023-01-31T01:08:48.204Z,4.50
2023-01-31T01:11:17.854Z,4.77
2023-01-31T01:13:45.132Z,4.70
2023-01-31T01:16:17.795Z,4.77
2023-01-31T01:18:47.089Z,4.70
2023-01-31T01:21:20.506Z,4.17
2023-01-31T01:23:47.490Z,3.77
2023-01-31T01:26:16.469Z,4.23
2023-01-31T01:28:43.216Z,4.87
2023-01-31T01:31:11.707Z,4.50
2023-01-31T01:33:38.536Z,4.93
2023-01-31T01:36:07.272Z,4.40
2023-01-31T01:38:35.613Z,4.60
2023-01-31T01:41:03.174Z,4.90
2023-01-31T01:43:55.014Z,5.00
2023-01-31T01:46:36.184Z,4.27
2023-01-31T01:49:20.717Z,4.63
2023-01-31T01:51:51.118Z,4.73
2023-01-31T01:54:31.584Z,4.87
2023-01-31T01:57:03.084Z,5.53
2023-01-31T01:59:37.893Z,5.17
2023-01-31T02:02:05.941Z,5.27
2023-01-31T02:04:37.926Z,5.27
2023-01-31T02:07:05.278Z,5.77
2023-01-31T02:09:54.626Z,5.10
2023-01-31T02:12:21.514Z,5.70
2023-01-31T02:14:49.429Z,5.93
2023-01-31T02:17:18.427Z,5.63
2023-01-31T02:19:45.092Z,5.60
2023-01-31T02:22:34.670Z,5.80
2023-01-31T02:25:22.746Z,5.87
2023-01-31T02:28:13.128Z,5.50
2023-01-31T02:30:58.504Z,6.10
2023-01-31T02:33:36.945Z,6.33
2023-01-31T02:36:12.520Z,5.37
2023-01-31T02:39:07.408Z,4.97
2023-01-31T02:41:49.027Z,5.53
2023-01-31T02:44:45.585Z,4.93
2023-01-31T02:47:18.760Z,5.00
2023-01-31T02:50:26.332Z,4.90
2023-01-31T02:52:59.376Z,5.07
2023-01-31T02:55:55.060Z,4.93
2023-01-31T02:58:24.999Z,4.87
2023-01-31T03:00:56.132Z,6.77
2023-01-31T03:03:26.822Z,5.43
2023-01-31T03:06:12.075Z,5.10
2023-01-31T03:08:41.975Z,5.30
2023-01-31T03:11:09.617Z,5.60
2023-01-31T03:14:08.435Z,4.93
2023-01-31T03:17:09.202Z,5.93
2023-01-31T03:20:05.771Z,5.07
2023-01-31T03:22:37.153Z,5.17
2023-01-31T03:25:07.161Z,4.90
2023-01-31T03:27:35.122Z,5.23
2023-01-31T03:30:27.606Z,6.00
2023-01-31T03:33:06.291Z,5.27
2023-01-31T03:35:36.153Z,5.30
2023-01-31T03:38:25.887Z,5.83
2023-01-31T03:41:02.022Z,5.43
2023-01-31T03:43:37.653Z,5.83
2023-01-31T03:46:04.502Z,6.63
2023-01-31T03:48:36.303Z,5.17
2023-01-31T03:51:07.450Z,6.23
2023-01-31T03:53:50.075Z,5.67
2023-01-31T03:56:25.220Z,6.03
2023-01-31T03:58:59.392Z,5.80
2023-01-31T04:01:30.983Z,5.80
2023-01-31T04:04:38.920Z,6.03
2023-01-31T04:07:06.513Z,5.77
2023-01-31T04:09:34.047Z,5.73
2023-01-31T04:12:02.529Z,5.93
2023-01-31T04:14:29.677Z,5.47
2023-01-31T04:16:56.463Z,6.00
2023-01-31T04:19:23.377Z,5.73
2023-01-31T04:21:50.144Z,5.40
2023-01-31T04:24:16.838Z,5.23
2023-01-31T04:26:43.521Z,5.67
2023-01-31T04:29:10.197Z,4.73
2023-01-31T04:31:36.985Z,5.33
2023-01-31T04:34:03.803Z,4.93
2023-01-31T04:36:30.544Z,4.87
2023-01-31T04:38:57.308Z,5.37
2023-01-31T04:41:24.035Z,4.70
2023-01-31T04:43:50.701Z,5.37
2023-01-31T04:46:17.591Z,5.00
2023-01-31T04:48:44.370Z,5.87
2023-01-31T04:51:11.191Z,4.20
2023-01-31T04:53:38.017Z,4.43
2023-01-31T04:56:05.862Z,5.20
2023-01-31T04:58:32.857Z,5.27
2023-01-31T05:00:59.735Z,5.17
2023-01-31T05:03:26.487Z,5.00
2023-01-31T05:05:53.429Z,4.63
2023-01-31T05:08:20.129Z,5.30
2023-01-31T05:10:46.908Z,5.33
2023-01-31T05:13:14.643Z,5.00
2023-01-31T05:15:41.350Z,4.90
2023-01-31T05:18:08.086Z,4.80
2023-01-31T05:20:39.788Z,4.77
2023-01-31T05:23:07.482Z,5.07
2023-01-31T05:25:36.134Z,5.07
2023-01-31T05:28:04.450Z,5.07
2023-01-31T05:30:31.558Z,4.70
2023-01-31T05:32:58.489Z,5.03
2023-01-31T05:35:25.274Z,4.70
2023-01-31T05:37:54.383Z,4.80
2023-01-31T05:40:22.166Z,5.40
2023-01-31T05:43:02.229Z,4.87
2023-01-31T05:45:29.169Z,6.00
2023-01-31T05:47:56.091Z,5.80
2023-01-31T05:50:23.040Z,5.70
2023-01-31T05:52:52.033Z,5.93
2023-01-31T05:55:19.323Z,6.40
2023-01-31T05:57:46.530Z,5.50
2023-01-31T06:00:14.492Z,6.07
2023-01-31T06:02:41.992Z,5.70
2023-01-31T06:05:09.648Z,5.47
2023-01-31T06:07:36.794Z,6.73
2023-01-31T06:10:04.629Z,5.60
2023-01-31T06:12:31.356Z,6.77
2023-01-31T06:14:58.689Z,5.60
2023-01-31T06:17:25.465Z,4.97
2023-01-31T06:19:52.204Z,5.60
2023-01-31T06:22:19.771Z,6.83
2023-01-31T06:24:48.580Z,5.67
2023-01-31T06:27:15.277Z,5.90
2023-01-31T06:29:41.972Z,6.20
2023-01-31T06:32:08.747Z,6.00
2023-01-31T06:34:35.519Z,5.80
2023-01-31T06:37:02.448Z,5.10
2023-01-31T06:39:29.240Z,5.20
2023-01-31T06:41:56.555Z,5.83
2023-01-31T06:44:23.332Z,5.93
2023-01-31T06:46:50.134Z,5.13
2023-01-31T06:49:16.898Z,5.33
2023-01-31T06:51:43.580Z,5.97
2023-01-31T06:54:10.253Z,5.33
2023-01-31T06:56:37.000Z,6.10
2023-01-31T06:59:03.809Z,5.80
2023-01-31T07:01:30.587Z,5.10
2023-01-31T07:03:57.614Z,5.63
2023-01-31T07:06:24.445Z,5.53
2023-01-31T07:08:53.997Z,4.93
2023-01-31T07:11:20.748Z,5.53
2023-01-31T07:13:47.989Z,5.20
2023-01-31T07:16:16.821Z,4.63
2023-01-31T07:18:43.728Z,4.50
2023-01-31T07:21:10.942Z,4.73
2023-01-31T07:23:37.796Z,4.53
2023-01-31T07:26:05.850Z,3.80
2023-01-31T07:28:32.669Z,4.50
2023-01-31T07:31:11.958Z,4.03
2023-01-31T07:33:39.796Z,4.23
2023-01-31T07:36:08.663Z,4.47
2023-01-31T07:38:35.588Z,3.50
2023-01-31T07:41:04.341Z,4.10
2023-01-31T07:43:32.285Z,3.97
2023-01-31T07:45:59.104Z,4.57
2023-01-31T07:48:26.253Z,5.20
2023-01-31T07:50:58.620Z,4.87
2023-01-31T07:53:26.861Z,4.97
2023-01-31T07:55:53.545Z,5.67
2023-01-31T07:58:20.380Z,4.87
2023-01-31T08:01:06.006Z,5.10
2023-01-31T08:03:33.693Z,5.17
2023-01-31T08:06:02.239Z,5.27
2023-01-31T08:08:29.595Z,5.13
2023-01-31T08:10:56.457Z,5.53
2023-01-31T08:13:23.430Z,5.60
2023-01-31T08:15:52.336Z,5.43
2023-01-31T08:18:19.307Z,6.63
2023-01-31T08:20:46.249Z,6.20
2023-01-31T08:23:13.028Z,6.03
2023-01-31T08:25:40.038Z,6.67
2023-01-31T08:28:07.079Z,5.57
2023-01-31T08:30:34.046Z,6.50
2023-01-31T08:33:01.050Z,6.33
2023-01-31T08:35:28.287Z,8.03
2023-01-31T08:38:03.766Z,7.10
2023-01-31T08:40:33.991Z,6.87
2023-01-31T08:43:01.055Z,7.33
2023-01-31T08:45:30.564Z,6.13
2023-01-31T08:47:59.275Z,6.07
2023-01-31T08:50:29.014Z,6.33
2023-01-31T08:53:00.222Z,5.63
2023-01-31T08:55:27.975Z,7.27
2023-01-31T08:57:59.875Z,6.70
2023-01-31T09:00:28.966Z,6.60
2023-01-31T09:02:58.998Z,6.97
2023-01-31T09:05:27.196Z,6.63
2023-01-31T09:07:54.199Z,11.43
2023-01-31T09:10:22.038Z,11.50
2023-01-31T09:12:48.923Z,8.40
2023-01-31T09:15:15.625Z,6.77
2023-01-31T09:17:43.599Z,5.90
2023-01-31T09:20:11.798Z,6.03
2023-01-31T09:22:38.638Z,6.37
2023-01-31T09:25:06.046Z,5.53
2023-01-31T09:27:33.323Z,6.37
2023-01-31T09:30:00.295Z,5.93
2023-01-31T09:32:27.224Z,5.87
2023-01-31T09:34:53.974Z,6.30
2023-01-31T09:37:20.848Z,5.83
2023-01-31T09:39:47.634Z,6.50
2023-01-31T09:42:23.251Z,6.47
2023-01-31T09:45:01.859Z,6.27
2023-01-31T09:47:39.158Z,7.20
2023-01-31T09:50:31.305Z,6.13
2023-01-31T09:52:59.140Z,6.13
2023-01-31T09:56:09.447Z,6.37
2023-01-31T09:58:58.851Z,6.60
2023-01-31T10:01:46.436Z,6.37
2023-01-31T10:04:37.910Z,7.40
2023-01-31T10:07:20.091Z,7.83
2023-01-31T10:10:00.345Z,7.17
2023-01-31T10:12:46.090Z,7.40
2023-01-31T10:15:37.084Z,7.60
2023-01-31T10:18:29.321Z,7.83
2023-01-31T10:21:08.951Z,7.37
2023-01-31T10:23:41.793Z,7.93
2023-01-31T10:26:18.020Z,7.97
2023-01-31T10:29:03.589Z,7.70
2023-01-31T10:31:43.905Z,8.03
2023-01-31T10:34:32.637Z,7.77
2023-01-31T10:37:08.153Z,8.40
2023-01-31T10:39:44.721Z,7.50
2023-01-31T10:42:30.047Z,7.07
2023-01-31T10:45:06.301Z,7.30
2023-01-31T10:47:37.167Z,6.70
2023-01-31T10:50:31.177Z,7.00
2023-01-31T10:53:32.448Z,7.20
2023-01-31T10:56:05.113Z,7.90
2023-01-31T10:58:32.494Z,8.00
2023-01-31T11:00:59.359Z,7.27
2023-01-31T11:03:26.508Z,8.03
2023-01-31T11:05:58.008Z,8.20
2023-01-31T11:08:30.842Z,8.00
2023-01-31T11:11:03.968Z,8.20
2023-01-31T11:13:30.679Z,9.00
2023-01-31T11:15:57.991Z,8.83
2023-01-31T11:18:35.389Z,7.73
2023-01-31T11:21:03.568Z,7.80
2023-01-31T11:23:34.050Z,8.20
2023-01-31T11:26:01.055Z,7.80
2023-01-31T11:28:38.205Z,8.30
2023-01-31T11:31:09.723Z,8.23
2023-01-31T11:33:55.839Z,8.20
2023-01-31T11:36:24.238Z,9.43
2023-01-31T11:38:51.617Z,8.50
2023-01-31T11:41:37.441Z,8.37
2023-01-31T11:44:16.144Z,8.60
2023-01-31T11:46:50.973Z,8.57
2023-01-31T11:49:22.805Z,8.90
2023-01-31T11:51:50.552Z,9.17
2023-01-31T11:54:25.705Z,9.23
2023-01-31T11:56:55.636Z,9.30
2023-01-31T11:59:27.120Z,10.00
2023-01-31T12:01:57.563Z,9.73
2023-01-31T12:04:31.151Z,8.33
2023-01-31T12:06:59.707Z,9.37
2023-01-31T12:09:29.807Z,9.57
2023-01-31T12:12:07.715Z,9.30
2023-01-31T12:14:42.448Z,9.13
2023-01-31T12:17:17.718Z,8.23
2023-01-31T12:20:17.511Z,8.93
2023-01-31T12:23:10.669Z,8.60
2023-01-31T12:25:46.140Z,8.20
2023-01-31T12:28:42.216Z,8.20
2023-01-31T12:31:50.827Z,9.30
2023-01-31T12:34:59.502Z,7.53
2023-01-31T12:37:43.523Z,7.87
2023-01-31T12:40:35.636Z,8.40
2023-01-31T12:43:40.264Z,7.07
2023-01-31T12:46:35.472Z,7.43
2023-01-31T12:49:32.926Z,7.67
2023-01-31T12:52:36.683Z,7.33
2023-01-31T12:57:56.402Z,7.23
2023-01-31T13:00:36.921Z,7.30
2023-01-31T13:03:30.505Z,7.63
2023-01-31T13:06:03.399Z,8.03
2023-01-31T13:08:33.160Z,7.67
2023-01-31T13:11:09.375Z,7.33
2023-01-31T13:13:39.389Z,7.37
2023-01-31T13:16:17.830Z,7.37
2023-01-31T13:18:48.566Z,7.73
2023-01-31T13:21:20.013Z,8.67
2023-01-31T13:23:55.687Z,7.10
2023-01-31T13:26:28.178Z,7.93
2023-01-31T13:29:01.459Z,6.67
2023-01-31T13:31:38.718Z,7.67
2023-01-31T13:34:15.696Z,7.53
2023-01-31T13:36:55.243Z,7.17
2023-01-31T13:39:30.523Z,7.67
2023-01-31T13:41:58.336Z,7.43
2023-01-31T13:44:25.038Z,7.20
2023-01-31T13:46:55.717Z,6.97
2023-01-31T13:49:31.860Z,7.60
2023-01-31T13:52:01.923Z,7.50
2023-01-31T13:54:33.969Z,6.80
2023-01-31T13:57:02.395Z,7.30
2023-01-31T13:59:33.146Z,7.53
2023-01-31T14:02:02.070Z,8.00
2023-01-31T14:04:37.195Z,7.63
2023-01-31T14:07:08.320Z,7.17
2023-01-31T14:09:37.466Z,8.03
2023-01-31T14:12:07.249Z,7.13
2023-01-31T14:14:37.551Z,7.07
2023-01-31T14:17:06.710Z,6.87
2023-01-31T14:19:45.817Z,6.73
2023-01-31T14:22:21.107Z,7.00
2023-01-31T14:24:53.167Z,6.43
2023-01-31T14:27:23.836Z,6.87
2023-01-31T14:30:04.719Z,7.37
2023-01-31T14:32:36.285Z,6.63
2023-01-31T14:35:39.026Z,6.63
2023-01-31T14:38:05.748Z,6.60
2023-01-31T14:40:49.337Z,6.80
2023-01-31T14:43:33.832Z,6.67
2023-01-31T14:46:12.636Z,6.50
2023-01-31T14:49:06.136Z,6.03
2023-01-31T14:52:03.713Z,5.80
2023-01-31T14:54:33.293Z,6.67
2023-01-31T14:57:23.594Z,6.50
2023-01-31T14:59:59.984Z,6.50
2023-01-31T15:02:32.875Z,6.87
2023-01-31T15:05:04.442Z,7.67
2023-01-31T15:07:31.928Z,6.80
2023-01-31T15:09:58.782Z,6.53
2023-01-31T15:13:02.673Z,6.13
2023-01-31T15:15:37.373Z,6.40
2023-01-31T15:18:30.580Z,6.30
2023-01-31T15:21:01.107Z,6.03
2023-01-31T15:23:31.788Z,6.23
2023-01-31T15:26:01.279Z,7.30
2023-01-31T15:28:36.140Z,6.00
2023-01-31T15:31:16.289Z,5.87
2023-01-31T15:33:48.087Z,6.20
2023-01-31T15:36:21.906Z,6.10
2023-01-31T15:38:57.230Z,6.63
2023-01-31T15:41:35.315Z,6.53
2023-01-31T15:44:18.944Z,6.40
2023-01-31T15:46:48.229Z,5.47
2023-01-31T15:49:37.960Z,6.00
2023-01-31T15:52:10.573Z,5.90
2023-01-31T15:54:37.599Z,5.97
2023-01-31T15:57:05.003Z,5.97
2023-01-31T15:59:34.023Z,6.53
2023-01-31T16:02:02.543Z,6.27
2023-01-31T16:04:29.861Z,6.20
2023-01-31T16:06:57.250Z,6.33
2023-01-31T16:09:27.003Z,5.83
2023-01-31T16:11:54.414Z,6.07
2023-01-31T16:14:22.825Z,6.73
2023-01-31T16:16:53.104Z,6.90
2023-01-31T16:19:29.259Z,6.27
2023-01-31T16:21:58.373Z,6.27
2023-01-31T16:24:26.420Z,6.60
2023-01-31T16:27:00.470Z,6.70
2023-01-31T16:29:59.129Z,6.50
2023-01-31T16:32:35.010Z,6.37
2023-01-31T16:35:27.696Z,6.20
2023-01-31T16:38:03.991Z,6.80
2023-01-31T16:40:35.328Z,6.97
2023-01-31T16:43:30.043Z,7.37
2023-01-31T16:45:59.876Z,6.60
2023-01-31T16:48:28.382Z,7.80
2023-01-31T16:51:00.761Z,6.60
2023-01-31T16:53:39.860Z,7.20
2023-01-31T16:56:19.109Z,7.93
2023-01-31T16:59:03.731Z,7.17
2023-01-31T17:01:34.330Z,7.63
2023-01-31T17:04:04.400Z,7.67
2023-01-31T17:06:31.821Z,7.53
2023-01-31T17:08:58.718Z,8.70
2023-01-31T17:11:41.626Z,7.87
2023-01-31T17:14:09.313Z,7.93
2023-01-31T17:16:36.031Z,8.60
2023-01-31T17:19:02.733Z,8.67
2023-01-31T17:21:32.688Z,7.37
2023-01-31T17:23:59.691Z,8.37
2023-01-31T17:26:26.443Z,8.33
2023-01-31T17:29:01.498Z,8.17
2023-01-31T17:31:31.192Z,6.90
2023-01-31T17:33:58.272Z,8.10
2023-01-31T17:36:24.983Z,7.40
2023-01-31T17:38:53.029Z,7.13
2023-01-31T17:41:21.077Z,7.10
2023-01-31T17:43:47.842Z,6.57
2023-01-31T17:46:16.366Z,6.60
2023-01-31T17:48:43.246Z,6.23
2023-01-31T17:51:10.617Z,6.30
2023-01-31T17:53:47.874Z,6.30
2023-01-31T17:56:16.678Z,6.33
2023-01-31T17:58:43.527Z,6.10
2023-01-31T18:01:14.548Z,6.50
2023-01-31T18:03:42.015Z,6.03
2023-01-31T18:06:10.241Z,5.97
2023-01-31T18:08:37.600Z,6.73
2023-01-31T18:11:16.161Z,6.03
2023-01-31T18:13:43.114Z,6.03
2023-01-31T18:16:16.056Z,5.60
2023-01-31T18:18:46.437Z,5.90
2023-01-31T18:21:16.357Z,5.47
2023-01-31T18:23:43.402Z,5.33
2023-01-31T18:26:11.245Z,6.17
2023-01-31T18:28:38.196Z,6.13
2023-01-31T18:31:10.508Z,5.30
2023-01-31T18:33:37.859Z,5.40
2023-01-31T18:36:06.044Z,5.60
2023-01-31T18:38:33.004Z,5.87
2023-01-31T18:41:02.659Z,5.20
2023-01-31T18:43:29.970Z,5.43
2023-01-31T18:45:57.110Z,5.93
2023-01-31T18:48:23.925Z,5.50
2023-01-31T18:50:50.673Z,5.63
2023-01-31T18:53:17.424Z,5.40
2023-01-31T18:55:44.118Z,5.17
2023-01-31T18:58:10.805Z,5.73
2023-01-31T19:00:37.596Z,5.80
2023-01-31T19:03:04.324Z,5.00
2023-01-31T19:05:31.202Z,4.77
2023-01-31T19:07:58.168Z,4.60
2023-01-31T19:10:24.895Z,5.00
2023-01-31T19:12:51.680Z,5.20
2023-01-31T19:15:18.485Z,4.50
2023-01-31T19:17:45.268Z,4.37
2023-01-31T19:20:12.474Z,4.63
2023-01-31T19:22:40.528Z,4.30
2023-01-31T19:25:09.385Z,5.03
2023-01-31T19:27:36.120Z,4.20
2023-01-31T19:30:03.017Z,4.30
2023-01-31T19:32:31.038Z,4.13
2023-01-31T19:34:57.960Z,4.30
2023-01-31T19:37:24.776Z,3.97
2023-01-31T19:39:51.744Z,4.20
2023-01-31T19:42:18.498Z,4.43
2023-01-31T19:44:45.803Z,4.27
2023-01-31T19:47:12.633Z,6.77
2023-01-31T19:49:39.408Z,4.37
2023-01-31T19:52:06.113Z,4.30
2023-01-31T19:54:32.896Z,4.03
2023-01-31T19:56:59.584Z,4.20
2023-01-31T19:59:26.334Z,4.60
2023-01-31T20:01:53.039Z,4.57
2023-01-31T20:04:19.771Z,4.40
2023-01-31T20:06:46.714Z,4.30
2023-01-31T20:09:19.927Z,4.37
2023-01-31T20:11:46.767Z,4.37
2023-01-31T20:14:13.504Z,4.80
2023-01-31T20:16:40.308Z,4.80
2023-01-31T20:19:07.626Z,4.50
2023-01-31T20:21:34.762Z,4.47
2023-01-31T20:24:01.754Z,4.70
2023-01-31T20:26:29.850Z,4.23
2023-01-31T20:28:56.817Z,4.23
2023-01-31T20:31:23.659Z,4.03
2023-01-31T20:33:52.194Z,4.93
2023-01-31T20:36:19.041Z,4.73
2023-01-31T20:38:45.706Z,4.53
2023-01-31T20:41:15.061Z,4.77
2023-01-31T20:43:42.232Z,5.07
2023-01-31T20:46:13.884Z,4.90
2023-01-31T20:48:42.943Z,5.20
2023-01-31T20:51:09.783Z,4.57
2023-01-31T20:53:36.814Z,5.10
2023-01-31T20:56:11.092Z,5.33
2023-01-31T20:58:40.335Z,4.87
2023-01-31T21:01:08.782Z,4.50
2023-01-31T21:03:36.147Z,4.70
2023-01-31T21:06:04.181Z,4.60
2023-01-31T21:08:32.053Z,4.77
2023-01-31T21:11:03.541Z,4.27
2023-01-31T21:13:31.516Z,4.23
2023-01-31T21:16:01.787Z,4.27
2023-01-31T21:18:31.117Z,4.37
2023-01-31T21:20:57.973Z,4.83
2023-01-31T21:23:25.330Z,4.93
2023-01-31T21:25:51.997Z,4.77
2023-01-31T21:28:18.668Z,4.30
2023-01-31T21:30:45.571Z,4.50
2023-01-31T21:33:12.419Z,4.83
2023-01-31T21:35:39.163Z,4.67
2023-01-31T21:38:05.892Z,4.20
2023-01-31T21:40:32.658Z,4.70
2023-01-31T21:42:59.335Z,4.87
2023-01-31T21:45:41.233Z,5.07
2023-01-31T21:48:28.686Z,4.37
2023-01-31T21:50:56.132Z,5.00
2023-01-31T21:53:22.883Z,5.37
2023-01-31T21:55:49.669Z,5.10
2023-01-31T21:58:20.858Z,4.97
2023-01-31T22:00:47.532Z,4.53
2023-01-31T22:03:14.197Z,4.50
2023-01-31T22:05:40.886Z,4.63
2023-01-31T22:08:07.607Z,4.73
2023-01-31T22:10:34.363Z,4.10
2023-01-31T22:13:01.082Z,4.67
2023-01-31T22:15:27.849Z,4.70
2023-01-31T22:17:54.611Z,4.40
2023-01-31T22:20:21.667Z,4.43
2023-01-31T22:22:48.832Z,4.87
2023-01-31T22:25:15.724Z,5.03
2023-01-31T22:27:42.466Z,4.47
2023-01-31T22:30:16.172Z,4.33
2023-01-31T22:32:43.468Z,4.20
2023-01-31T22:35:10.366Z,4.20
2023-01-31T22:37:37.130Z,4.90
2023-01-31T22:40:04.224Z,4.27
2023-01-31T22:42:30.866Z,4.37
2023-01-31T22:44:57.576Z,4.27
2023-01-31T22:47:24.701Z,4.30
2023-01-31T22:49:51.448Z,4.23
2023-01-31T22:52:18.192Z,4.20
2023-01-31T22:54:44.945Z,4.40
2023-01-31T22:57:12.364Z,4.00
2023-01-31T22:59:39.073Z,3.90
2023-01-31T23:02:06.499Z,4.00
2023-01-31T23:04:33.303Z,3.83
2023-01-31T23:07:00.881Z,3.97
2023-01-31T23:09:27.548Z,3.70
2023-01-31T23:11:54.209Z,3.37
2023-01-31T23:14:20.968Z,3.60
2023-01-31T23:17:06.611Z,3.67
2023-01-31T23:19:33.269Z,3.67
2023-01-31T23:21:59.934Z,3.00
2023-01-31T23:24:26.620Z,2.70
2023-01-31T23:26:57.055Z,3.30
2023-01-31T23:29:23.747Z,3.30
2023-01-31T23:31:50.456Z,3.40
2023-01-31T23:34:18.319Z,2.60
2023-01-31T23:36:45.019Z,2.80
2023-01-31T23:39:11.880Z,2.53
2023-01-31T23:41:38.539Z,3.00
2023-01-31T23:44:05.743Z,2.90
2023-01-31T23:46:32.677Z,3.37
2023-01-31T23:48:59.450Z,3.00
2023-01-31T23:51:28.470Z,3.10
2023-01-31T23:53:55.164Z,3.17
2023-01-31T23:56:21.852Z,2.63
2023-01-31T23:58:48.526Z,3.00
